KWHP/WHP METAR and TAF weather

Enter ICAO airport designator
Station Type Date Time Source
KWHP METAR 2021/09/28 16:50 UTC NOAA

KWHP 281650Z 14004KT 9SM HZ OVC020 18/13 A2999


Station Type Date Time Source
KWHP Decoded METAR 2021/09/28 16:50 UTC NOAA

Los Angeles, Whiteman Airport, CA, United States (KWHP) 34-15N 118-24W
Sep 28, 2021 - 12:50 PM EDT / 2021.09.28 1650 UTC
Wind: from the SE (140 degrees) at 5 MPH (4 KT):0
Visibility: 9 mile(s):0
Sky conditions: overcast
Weather: haze
Temperature: 64 F (18 C)
Dew Point: 55 F (13 C)
Relative Humidity: 72%
Pressure (altimeter): 29.99 in. Hg (1015 hPa)
ob: KWHP 281650Z 14004KT 9SM HZ OVC020 18/13 A2999
cycle: 17

Station Type Date Time Source
KWHP TAF UTC NOAA

Error!

Example: see airport list